South Dartmouth, Massachusetts
Current Conditions -  °F | °C
As of 4:53 AM on Friday 19 Dec 2014 (Local Time) from KEWB Reporting Station
Broken Clouds Broken Clouds  
Wind Chill: 28°   Ceiling: 5500
Heat Index: 33°   Visibility: 10mi
Dew Point: 27°   Wind: 6mph
Humidity: 78%   Direction: 280°W
Pressure: 29.88"   Gusts: NA
Location:  41.6°N, 70.94°W
Report Text: KEWB 190953Z AUTO 28005KT 10SM BKN055 01/M03 A2988 RMK AO2 SLP118 T00061028
Loading
Personal Weather Stations






























Interactive Weather Map New forecast layout! Learn more

10-Day Weather Forecast

Advertisements
Track Severe Weather on mobile